Marysville, KS

5:41 AM CDT on July 30, 2016 (GMT -0500)
N0NB | | Change Station

Elev 1318 ft 39.91 °N, 96.77 °W | Updated 23 seconds ago

Clear
Clear
61.9 °F
Feels Like 61.9 °F
N
0.0
Wind Variable Wind from North
Gusts 1.0 mph

Today
High -- | Low -- °F
--% Chance of Precip.
Yesterday
High -- | Low -- °F
Precip. -- in
Pressure 30.02 in
Visibility 10.0 miles
Clouds Clear
Dew Point 61 °F
Humidity 96%
Rainfall 0.00 in
Snow Depth Not available.
6:24 AM 8:41 PM
Waning Crescent, 14% visible
METAR KBIE 301035Z AUTO 00000KT 10SM CLR 16/16 A3002 RMK AO2 T01640155
Pressure 30.02 in
Visibility 10.0 miles
Clouds Clear
Dew Point 61 °F
Humidity 96%
Rainfall 0.00 in
Snow Depth Not available.
6:24 AM 8:41 PM
Waning Crescent, 14% visible
METAR KBIE 301035Z AUTO 00000KT 10SM CLR 16/16 A3002 RMK AO2 T01640155

10-Day Weather Forecast

Almanac

Astronomy

Jul. 30, 2016 Rise Set
Actual Time
Civil Twilight
Nautical Twilight
Astronomical Twilight
Moon
Length of Visible Light
Length of Day
Tomorrow will be .
, % of the Moon is Illuminated

Today's Extremes

State Highs State Lows

Community

WunderPhotos

Upload Photos

1,928,530 photos uploaded!

WunderBlog® & News

Nearby

Air Quality

  Air Quality AQ Index Pollutant
Not available.

Snow Depth

Station Depth Elevation

Earthquake Activity

City Distance Mag. Time & Date
Minimum magnitude displayed is 2.5.

Coastal Water Temperatures

Place Temperature

Stations

Nearby Weather Stations

Station Location Temp. Windchill Dew Point Humidity Wind Precip. Elev Updated Type
                   

Watches & Warnings

There are currently no watches in effect.